Bryant, Wisconsin
Current Conditions -  °F | °C
As of 11:35 AM on Sunday 23 Nov 2014 (Local Time) from KAIG Reporting Station
Moderate Fog Moderate Fog  
Wind Chill: 35°   Ceiling: 300
Heat Index: 41°   Visibility: 0mi
Dew Point: 41°   Wind: 9mph
Humidity: 100%   Direction: 170°S
Pressure: 29.52"   Gusts: NA
Location:  45.21°N, 89.02°W
Report Text: KAIG 231735Z AUTO 17008KT M1/4SM FG OVC003 05/05 A2952 RMK AO2 T00480048
Loading
Personal Weather Stations






























Interactive Weather Map New forecast layout! Learn more

10-Day Weather Forecast

Advertisements
Track Severe Weather on mobile